Time;durP1;ratioP1;P1;durP2;ratioP2;P2;SDS_P1;SDS_P2;PMS_P1;PMS_P2;Temp;Humidity;BMP_temperature;BMP_pressure;BME280_temperature;BME280_humidity;BME280_pressure;Samples;Min_cycle;Max_cycle;Signal;HPM_P1;HPM_P2
2022/08/16 00:02:20;;;;;;;7.67;6.87;;;19.60;99.90;;;;;;5040699;28;20444;-74
2022/08/16 00:04:47;;;;;;;8.60;6.37;;;19.50;99.90;;;;;;5050833;28;20492;-74
2022/08/16 00:07:13;;;;;;;6.80;6.10;;;19.50;99.90;;;;;;5050857;28;20453;-74
2022/08/16 00:09:40;;;;;;;6.30;5.50;;;19.50;99.90;;;;;;5033414;28;20199;-74
2022/08/16 00:12:07;;;;;;;7.30;5.50;;;19.50;99.90;;;;;;5032983;28;20453;-74
2022/08/16 00:14:34;;;;;;;6.30;5.70;;;19.50;99.90;;;;;;5033283;28;20429;-74
2022/08/16 00:17:02;;;;;;;8.13;6.30;;;19.50;99.90;;;;;;5036846;28;20498;-74
2022/08/16 00:19:33;;;;;;;5.87;5.33;;;19.50;99.90;;;;;;5035450;28;20513;-74
2022/08/16 00:22:00;;;;;;;7.27;6.40;;;19.50;99.90;;;;;;5033000;28;20610;-74
2022/08/16 00:24:28;;;;;;;6.77;5.50;;;19.50;99.90;;;;;;5047574;28;20476;-74
2022/08/16 00:26:56;;;;;;;7.63;5.73;;;19.50;99.90;;;;;;5050557;28;20449;-73
2022/08/16 00:29:23;;;;;;;8.43;6.00;;;19.50;99.90;;;;;;5044980;28;20456;-74
2022/08/16 00:31:51;;;;;;;13.67;6.20;;;19.40;99.90;;;;;;5044688;28;20219;-74
2022/08/16 00:34:21;;;;;;;7.05;6.00;;;19.40;99.90;;;;;;5032963;28;20956;-74
2022/08/16 00:36:48;;;;;;;9.45;6.05;;;19.30;99.90;;;;;;5033076;28;20198;-74
2022/08/16 00:39:16;;;;;;;7.57;5.60;;;19.20;99.90;;;;;;5038988;28;20211;-74
2022/08/16 00:41:45;;;;;;;6.43;5.63;;;19.20;99.90;;;;;;5032244;28;21074;-73
2022/08/16 00:44:13;;;;;;;7.53;6.10;;;19.10;99.90;;;;;;5052309;28;20222;-74
2022/08/16 00:46:44;;;;;;;8.93;6.60;;;19.10;99.90;;;;;;5036711;28;20433;-73
2022/08/16 00:49:13;;;;;;;9.87;6.40;;;19.10;99.90;;;;;;5041382;28;20456;-74
2022/08/16 00:51:42;;;;;;;10.40;6.00;;;19.10;99.90;;;;;;5039830;28;20931;-74
2022/08/16 00:54:08;;;;;;;6.37;5.50;;;19.00;99.90;;;;;;5041104;28;20475;-74
2022/08/16 00:56:38;;;;;;;12.45;6.22;;;19.00;99.90;;;;;;5032808;28;20506;-74
2022/08/16 00:59:06;;;;;;;12.40;6.70;;;18.90;99.90;;;;;;5034797;28;20363;-74
2022/08/16 01:01:33;;;;;;;10.70;5.90;;;18.90;99.90;;;;;;5045512;28;20214;-73
2022/08/16 01:04:00;;;;;;;12.70;6.03;;;18.90;99.90;;;;;;5032399;28;20477;-74
2022/08/16 01:06:29;;;;;;;8.60;6.40;;;18.80;99.90;;;;;;5032121;28;20195;-74
2022/08/16 01:08:58;;;;;;;9.07;5.85;;;18.80;99.90;;;;;;5036815;28;20493;-74
2022/08/16 01:11:26;;;;;;;13.07;6.60;;;18.80;99.90;;;;;;5042104;28;20227;-74
2022/08/16 01:13:58;;;;;;;7.90;6.53;;;18.80;99.90;;;;;;5032073;28;20950;-74
2022/08/16 01:16:27;;;;;;;9.88;6.80;;;18.70;99.90;;;;;;5032359;28;20511;-74
2022/08/16 01:19:07;;;;;;;7.50;6.20;;;18.70;99.90;;;;;;5032154;28;20520;-74
2022/08/16 01:21:52;;;;;;;8.60;6.40;;;18.70;99.90;;;;;;5047730;28;20870;-74
2022/08/16 01:24:25;;;;;;;7.23;6.23;;;18.70;99.90;;;;;;5034062;28;20481;-74
2022/08/16 01:26:56;;;;;;;7.73;6.53;;;18.70;99.90;;;;;;5033270;28;20537;-74
2022/08/16 01:29:27;;;;;;;7.33;6.50;;;18.60;99.90;;;;;;5024223;28;20987;-73
2022/08/16 01:31:53;;;;;;;9.10;6.87;;;18.60;99.90;;;;;;5031970;28;20448;-74
2022/08/16 01:34:20;;;;;;;8.43;6.87;;;18.50;99.90;;;;;;5026973;28;20499;-74
2022/08/16 01:36:47;;;;;;;7.97;6.73;;;18.40;99.90;;;;;;5046384;28;20446;-74
2022/08/16 01:39:17;;;;;;;9.53;7.03;;;18.30;99.90;;;;;;5033230;28;20428;-74
2022/08/16 01:41:45;;;;;;;8.63;6.33;;;18.30;99.90;;;;;;5033931;28;20469;-73
2022/08/16 01:44:12;;;;;;;7.80;6.37;;;18.20;99.90;;;;;;5031796;28;20467;-74
2022/08/16 01:46:44;;;;;;;13.33;7.70;;;18.20;99.90;;;;;;5031981;28;20460;-74
2022/08/16 01:49:15;;;;;;;13.63;9.33;;;18.20;99.90;;;;;;5031920;28;20482;-74
2022/08/16 01:51:44;;;;;;;10.17;8.20;;;18.20;99.90;;;;;;5044795;28;20539;-74
2022/08/16 01:54:11;;;;;;;9.80;8.10;;;18.20;99.90;;;;;;5048833;28;20845;-73
2022/08/16 01:56:38;;;;;;;11.03;7.63;;;18.20;99.90;;;;;;5050404;28;20477;-73
2022/08/16 01:59:09;;;;;;;8.83;7.93;;;18.30;99.90;;;;;;5050173;28;20432;-73
2022/08/16 02:01:36;;;;;;;10.02;7.70;;;18.20;99.90;;;;;;5044835;28;20442;-73
2022/08/16 02:04:04;;;;;;;7.73;6.93;;;18.20;99.90;;;;;;5032658;28;20595;-74
2022/08/16 02:06:31;;;;;;;8.23;7.40;;;18.20;99.90;;;;;;5031513;28;20490;-73
2022/08/16 02:08:58;;;;;;;7.90;7.00;;;18.20;99.90;;;;;;5038434;28;20485;-73
2022/08/16 02:11:26;;;;;;;10.57;7.97;;;18.20;99.90;;;;;;5041438;28;20449;-73
2022/08/16 02:13:52;;;;;;;8.50;7.23;;;18.20;99.90;;;;;;5031457;28;20475;-73
2022/08/16 02:16:20;;;;;;;10.90;7.60;;;18.20;99.90;;;;;;5041962;28;20493;-73
2022/08/16 02:18:47;;;;;;;7.53;6.70;;;18.20;99.90;;;;;;5051034;28;20872;-74
2022/08/16 02:21:15;;;;;;;9.70;6.93;;;18.10;99.90;;;;;;5034026;28;20527;-73
2022/08/16 02:23:42;;;;;;;10.00;6.50;;;18.10;99.90;;;;;;5038305;28;20489;-73
2022/08/16 02:26:09;;;;;;;8.73;7.40;;;18.10;99.90;;;;;;5031506;28;20420;-74
2022/08/16 02:28:36;;;;;;;13.30;7.90;;;18.00;99.90;;;;;;5041585;28;20416;-73
2022/08/16 02:31:06;;;;;;;10.40;7.57;;;17.90;99.90;;;;;;5044005;28;20818;-74
2022/08/16 02:33:34;;;;;;;10.50;8.10;;;17.90;99.90;;;;;;5032218;28;20966;-73
2022/08/16 02:36:01;;;;;;;10.80;7.55;;;17.90;99.90;;;;;;5030502;28;20491;-73
2022/08/16 02:38:28;;;;;;;9.40;7.37;;;17.80;99.90;;;;;;5033793;28;20205;-74
2022/08/16 02:40:56;;;;;;;9.50;7.70;;;17.80;99.90;;;;;;5034988;28;21007;-73
2022/08/16 02:43:23;;;;;;;11.25;7.93;;;17.70;99.90;;;;;;5031520;28;20457;-73
2022/08/16 02:45:49;;;;;;;11.07;7.97;;;17.70;99.90;;;;;;5031170;28;20265;-73
2022/08/16 02:48:16;;;;;;;8.20;7.40;;;17.60;99.90;;;;;;5030725;28;20516;-73
2022/08/16 02:50:44;;;;;;;12.10;7.70;;;17.60;99.90;;;;;;5043713;28;20440;-73
2022/08/16 02:53:11;;;;;;;10.07;7.97;;;17.70;99.90;;;;;;5037037;28;20567;-73
2022/08/16 02:55:38;;;;;;;9.00;7.23;;;17.60;99.90;;;;;;5039391;28;20434;-73
2022/08/16 02:58:05;;;;;;;9.80;8.20;;;17.60;99.90;;;;;;5030923;28;20512;-73
2022/08/16 03:00:32;;;;;;;10.77;8.33;;;17.60;99.90;;;;;;5030953;28;20431;-73
2022/08/16 03:02:59;;;;;;;10.10;8.50;;;17.50;99.90;;;;;;5030783;28;20486;-73
2022/08/16 03:05:26;;;;;;;11.87;7.47;;;17.40;99.90;;;;;;5031046;28;20547;-73
2022/08/16 03:07:55;;;;;;;12.70;9.53;;;17.40;99.90;;;;;;5039554;28;20541;-73
2022/08/16 03:10:22;;;;;;;10.52;8.73;;;17.40;99.90;;;;;;5030507;28;20439;-73
2022/08/16 03:12:49;;;;;;;12.13;9.30;;;17.30;99.90;;;;;;5034318;28;20223;-73
2022/08/16 03:15:17;;;;;;;10.63;8.43;;;17.30;99.90;;;;;;5034567;28;20454;-73
2022/08/16 03:17:45;;;;;;;9.55;8.55;;;17.30;99.90;;;;;;5050900;28;20419;-74
2022/08/16 03:20:16;;;;;;;12.17;8.90;;;17.30;99.90;;;;;;5041056;28;20264;-73
2022/08/16 03:22:42;;;;;;;17.23;9.73;;;17.20;99.90;;;;;;5042266;28;20518;-73
2022/08/16 03:25:13;;;;;;;10.70;7.63;;;17.20;99.90;;;;;;5053745;28;20451;-73
2022/08/16 03:27:40;;;;;;;10.30;8.10;;;17.20;99.90;;;;;;5051756;28;20203;-73
2022/08/16 03:30:12;;;;;;;10.90;8.10;;;17.20;99.90;;;;;;5033591;28;20507;-73
2022/08/16 03:32:38;;;;;;;11.60;8.43;;;17.20;99.90;;;;;;5037002;28;20502;-73
2022/08/16 03:35:07;;;;;;;13.63;8.73;;;17.20;99.90;;;;;;5046837;28;20424;-73
2022/08/16 03:37:34;;;;;;;9.67;8.40;;;17.20;99.90;;;;;;5051913;28;20457;-73
2022/08/16 03:40:00;;;;;;;11.93;8.50;;;17.20;99.90;;;;;;5033047;28;20523;-73
2022/08/16 03:42:28;;;;;;;10.13;8.23;;;17.20;99.90;;;;;;5033150;28;20900;-73
2022/08/16 03:44:55;;;;;;;10.30;8.10;;;17.20;99.90;;;;;;5038008;28;20459;-73
2022/08/16 03:47:22;;;;;;;11.47;7.97;;;17.10;99.90;;;;;;5037833;28;20202;-73
2022/08/16 03:49:49;;;;;;;10.53;9.10;;;17.10;99.90;;;;;;5035235;28;20450;-73
2022/08/16 03:52:15;;;;;;;11.93;8.30;;;17.10;99.90;;;;;;5033614;28;20453;-73
2022/08/16 03:54:42;;;;;;;11.50;8.47;;;17.10;99.90;;;;;;5033839;28;20478;-73
2022/08/16 03:57:08;;;;;;;11.27;8.30;;;17.10;99.90;;;;;;5034696;28;20428;-73
2022/08/16 03:59:36;;;;;;;9.73;8.17;;;17.10;99.90;;;;;;5034064;28;20478;-73
2022/08/16 04:02:04;;;;;;;12.43;7.60;;;17.10;99.90;;;;;;5038470;28;21054;-73
2022/08/16 04:04:31;;;;;;;11.00;8.47;;;17.10;99.90;;;;;;5034839;28;20432;-73
2022/08/16 04:06:58;;;;;;;9.77;8.43;;;17.10;99.90;;;;;;5033507;28;20863;-73
2022/08/16 04:09:24;;;;;;;10.37;8.53;;;17.10;99.90;;;;;;5040865;28;20453;-73
2022/08/16 04:11:51;;;;;;;9.27;7.53;;;17.00;99.90;;;;;;5045748;28;20862;-73
2022/08/16 04:14:18;;;;;;;10.88;8.40;;;17.00;99.90;;;;;;5038420;28;20432;-73
2022/08/16 04:16:46;;;;;;;23.15;9.32;;;17.10;99.90;;;;;;5051318;28;20210;-73
2022/08/16 04:19:12;;;;;;;12.77;9.15;;;17.00;99.90;;;;;;5052976;28;20206;-73
2022/08/16 04:21:39;;;;;;;12.70;9.07;;;17.00;99.90;;;;;;5051217;28;20272;-73
2022/08/16 04:24:06;;;;;;;13.30;10.20;;;16.90;99.90;;;;;;5041350;28;20436;-73
2022/08/16 04:26:33;;;;;;;15.90;11.40;;;16.80;99.90;;;;;;5044912;28;20480;-74
2022/08/16 04:29:00;;;;;;;15.60;10.67;;;16.70;99.90;;;;;;5034409;28;20261;-73
2022/08/16 04:31:27;;;;;;;14.10;10.37;;;16.70;99.90;;;;;;5032808;28;20477;-73
2022/08/16 04:33:58;;;;;;;13.87;10.03;;;16.60;99.90;;;;;;5035908;28;20426;-73
2022/08/16 04:36:26;;;;;;;11.13;9.47;;;16.60;99.90;;;;;;5052311;28;21195;-73
2022/08/16 04:38:53;;;;;;;19.40;11.10;;;16.60;99.90;;;;;;5050798;28;20492;-73
2022/08/16 04:41:20;;;;;;;13.50;10.70;;;16.60;99.90;;;;;;5034046;28;20474;-73
2022/08/16 04:43:46;;;;;;;10.80;9.33;;;16.70;99.90;;;;;;5034273;28;20973;-74
2022/08/16 04:46:15;;;;;;;14.90;9.93;;;16.70;99.90;;;;;;5040015;28;20580;-73
2022/08/16 04:48:42;;;;;;;16.08;9.65;;;16.70;99.90;;;;;;5048208;28;20956;-73
2022/08/16 04:51:11;;;;;;;11.20;9.43;;;16.70;99.90;;;;;;5051658;28;20245;-73
2022/08/16 04:53:38;;;;;;;13.50;10.23;;;16.80;99.90;;;;;;5043962;28;20453;-73
2022/08/16 04:56:05;;;;;;;15.03;9.70;;;16.80;99.90;;;;;;5043497;28;20953;-76
2022/08/16 04:58:32;;;;;;;14.83;8.93;;;16.80;99.90;;;;;;5052295;28;20540;-73
2022/08/16 05:00:59;;;;;;;13.37;9.27;;;16.90;99.90;;;;;;5041951;28;20458;-73
2022/08/16 05:03:26;;;;;;;15.85;9.95;;;17.10;99.90;;;;;;5032617;28;20472;-73
2022/08/16 05:05:53;;;;;;;16.03;9.63;;;17.40;99.90;;;;;;5034362;28;20216;-74
2022/08/16 05:08:21;;;;;;;14.60;7.25;;;17.60;99.90;;;;;;5038719;28;20427;-74
2022/08/16 05:10:48;;;;;;;13.77;7.60;;;17.90;99.90;;;;;;5034989;28;20272;-74
2022/08/16 05:13:16;;;;;;;14.95;8.40;;;18.10;99.90;;;;;;5049781;28;20444;-74
2022/08/16 05:15:43;;;;;;;11.90;8.73;;;18.30;99.90;;;;;;5035520;28;20195;-74
2022/08/16 05:18:10;;;;;;;11.90;8.30;;;18.30;99.90;;;;;;5032802;28;20471;-74
2022/08/16 05:20:37;;;;;;;12.63;8.50;;;18.30;99.90;;;;;;5031686;28;20425;-74
2022/08/16 05:23:03;;;;;;;18.77;9.40;;;18.40;99.90;;;;;;5032367;28;20511;-74
2022/08/16 05:25:31;;;;;;;11.37;7.90;;;18.50;99.90;;;;;;5032006;28;20474;-74
2022/08/16 05:27:58;;;;;;;9.93;8.77;;;18.50;99.90;;;;;;5032125;28;20491;-74
2022/08/16 05:30:25;;;;;;;12.07;8.98;;;18.60;99.90;;;;;;5036795;28;20866;-74
2022/08/16 05:32:52;;;;;;;11.70;8.73;;;18.70;99.90;;;;;;5049036;28;20638;-74
2022/08/16 05:35:19;;;;;;;16.43;9.13;;;18.60;99.90;;;;;;5047411;28;20435;-74
2022/08/16 05:37:45;;;;;;;13.83;10.17;;;18.60;99.90;;;;;;5046283;28;20998;-74
2022/08/16 05:40:13;;;;;;;11.73;10.50;;;18.50;99.90;;;;;;5037747;28;20433;-74
2022/08/16 05:42:41;;;;;;;13.60;9.80;;;18.40;99.90;;;;;;5047574;28;20588;-74
2022/08/16 05:45:09;;;;;;;12.70;10.00;;;18.40;99.90;;;;;;5048868;28;20485;-74
2022/08/16 05:47:36;;;;;;;11.63;8.17;;;18.60;99.90;;;;;;5041344;28;20436;-73
2022/08/16 05:50:04;;;;;;;15.23;10.03;;;18.80;99.90;;;;;;5039731;28;20490;-74
2022/08/16 05:52:31;;;;;;;14.27;8.97;;;19.10;99.90;;;;;;5050997;28;20514;-73
2022/08/16 05:54:59;;;;;;;13.35;9.60;;;19.50;99.90;;;;;;5039849;28;20443;-73
2022/08/16 05:57:25;;;;;;;11.50;9.95;;;19.80;99.90;;;;;;5044601;28;20209;-73
2022/08/16 05:59:53;;;;;;;12.93;10.00;;;20.10;99.90;;;;;;5050605;28;20275;-74
2022/08/16 06:02:23;;;;;;;10.90;8.20;;;20.20;99.90;;;;;;5045202;28;20471;-73
2022/08/16 06:04:50;;;;;;;12.13;10.63;;;20.40;99.90;;;;;;5031414;28;20460;-73
2022/08/16 06:07:16;;;;;;;12.85;9.68;;;20.60;99.90;;;;;;5027529;28;20514;-73
2022/08/16 06:09:43;;;;;;;15.33;10.90;;;20.70;99.90;;;;;;5039746;28;20202;-71
2022/08/16 06:12:11;;;;;;;18.23;9.90;;;20.70;99.90;;;;;;5046354;28;20597;-71
2022/08/16 06:14:38;;;;;;;11.47;10.00;;;20.80;99.90;;;;;;5048778;28;20511;-71
2022/08/16 06:17:06;;;;;;;13.50;10.13;;;20.80;99.90;;;;;;5037566;28;20430;-71
2022/08/16 06:19:32;;;;;;;13.38;10.48;;;21.00;99.90;;;;;;5044904;28;20449;-72
2022/08/16 06:21:59;;;;;;;13.10;11.20;;;21.10;99.90;;;;;;5039261;28;20222;-71
2022/08/16 06:24:26;;;;;;;16.20;10.40;;;21.30;99.90;;;;;;5042004;28;20458;-72
2022/08/16 06:26:53;;;;;;;11.63;10.43;;;21.40;99.90;;;;;;5027278;28;20953;-71
2022/08/16 06:29:19;;;;;;;16.53;11.10;;;21.60;99.90;;;;;;5027014;28;20458;-72
2022/08/16 06:31:46;;;;;;;13.30;10.90;;;21.50;99.90;;;;;;5027177;28;20470;-72
2022/08/16 06:34:14;;;;;;;13.30;10.00;;;21.40;99.90;;;;;;5027156;28;20555;-72
2022/08/16 06:36:42;;;;;;;17.60;10.87;;;21.30;99.90;;;;;;5028441;28;20433;-72
2022/08/16 06:39:08;;;;;;;16.10;10.27;;;21.30;99.90;;;;;;5027133;28;20946;-72
2022/08/16 06:41:35;;;;;;;12.03;10.63;;;21.40;99.90;;;;;;5027445;28;20860;-72
2022/08/16 06:44:02;;;;;;;13.90;10.98;;;21.40;99.90;;;;;;5027737;28;21023;-72
2022/08/16 06:46:32;;;;;;;16.40;11.40;;;21.40;99.90;;;;;;5030830;28;20278;-73
2022/08/16 06:49:00;;;;;;;14.00;10.37;;;21.40;99.90;;;;;;5031312;28;20544;-73
2022/08/16 06:51:28;;;;;;;12.10;10.17;;;21.50;99.90;;;;;;5031164;28;20519;-73
2022/08/16 06:53:54;;;;;;;13.93;9.37;;;21.60;99.90;;;;;;5031262;28;20812;-73
2022/08/16 06:56:21;;;;;;;11.90;8.73;;;21.80;99.90;;;;;;5031418;28;20501;-73
2022/08/16 06:58:48;;;;;;;15.30;10.80;;;22.10;99.90;;;;;;5032059;28;20447;-73
2022/08/16 07:01:14;;;;;;;13.33;10.13;;;22.30;99.90;;;;;;5030985;28;20478;-73
2022/08/16 07:03:41;;;;;;;15.60;10.00;;;22.50;99.90;;;;;;5031358;28;20462;-72
2022/08/16 07:06:08;;;;;;;12.20;9.97;;;22.40;99.90;;;;;;5031368;28;20477;-72
2022/08/16 07:08:36;;;;;;;12.37;9.77;;;22.30;99.90;;;;;;5031040;28;20480;-71
2022/08/16 07:11:03;;;;;;;13.97;10.20;;;22.50;99.90;;;;;;5030269;28;20461;-71
2022/08/16 07:13:31;;;;;;;12.80;10.20;;;22.60;99.90;;;;;;5031081;28;20826;-71
2022/08/16 07:15:59;;;;;;;13.10;9.10;;;22.70;99.90;;;;;;5031253;28;20465;-71
2022/08/16 07:18:26;;;;;;;15.00;9.50;;;23.00;99.90;;;;;;5029962;28;20855;-71
2022/08/16 07:20:54;;;;;;;15.90;9.37;;;23.20;99.90;;;;;;5030400;28;20449;-72
2022/08/16 07:23:21;;;;;;;17.63;9.85;;;23.30;99.90;;;;;;5029883;28;20828;-72
2022/08/16 07:25:49;;;;;;;13.48;9.32;;;23.20;99.90;;;;;;5029894;28;20227;-72
2022/08/16 07:28:17;;;;;;;9.98;8.98;;;23.30;99.90;;;;;;5030209;28;20685;-72
2022/08/16 07:30:45;;;;;;;12.03;8.30;;;23.20;99.90;;;;;;5029624;28;20257;-72
2022/08/16 07:33:12;;;;;;;10.35;8.88;;;23.20;99.90;;;;;;5029789;28;20457;-72
2022/08/16 07:35:39;;;;;;;10.65;8.70;;;23.40;99.90;;;;;;5030172;28;20592;-72
2022/08/16 07:38:06;;;;;;;10.77;7.77;;;23.60;99.90;;;;;;5029770;28;20257;-72
2022/08/16 07:40:33;;;;;;;11.07;7.73;;;23.90;99.90;;;;;;5029263;28;21147;-71
2022/08/16 07:43:01;;;;;;;12.40;8.40;;;24.00;99.90;;;;;;5029388;28;20465;-71
2022/08/16 07:45:28;;;;;;;16.97;8.47;;;24.00;99.90;;;;;;5029660;28;20503;-71
2022/08/16 07:47:55;;;;;;;9.00;7.77;;;24.10;99.90;;;;;;5029864;28;20442;-72
2022/08/16 07:50:22;;;;;;;11.70;9.07;;;24.30;99.90;;;;;;5027253;28;20541;-74
2022/08/16 07:52:48;;;;;;;18.73;8.63;;;24.40;99.90;;;;;;5029012;28;20536;-74
2022/08/16 07:55:18;;;;;;;10.87;8.10;;;24.40;99.90;;;;;;5028958;28;20868;-74
2022/08/16 07:57:45;;;;;;;10.20;7.83;;;24.50;99.90;;;;;;5028949;28;20525;-74
2022/08/16 08:00:14;;;;;;;12.40;8.80;;;24.60;99.90;;;;;;5029695;28;20458;-74
2022/08/16 08:02:41;;;;;;;14.95;9.07;;;24.50;99.90;;;;;;5029987;28;20477;-74
2022/08/16 08:05:08;;;;;;;10.50;7.77;;;24.50;99.90;;;;;;5030408;28;20214;-75
2022/08/16 08:07:35;;;;;;;9.77;7.10;;;24.70;99.90;;;;;;5030060;28;20501;-74
2022/08/16 08:10:02;;;;;;;9.13;6.63;;;24.90;99.90;;;;;;5029867;28;21843;-74
2022/08/16 08:12:29;;;;;;;6.97;6.00;;;25.00;99.90;;;;;;5029757;28;20552;-74
2022/08/16 08:14:56;;;;;;;10.10;6.88;;;25.10;99.90;;;;;;5029809;28;20870;-74
2022/08/16 08:17:24;;;;;;;6.53;5.87;;;25.40;99.90;;;;;;5029382;28;20202;-74
2022/08/16 08:19:52;;;;;;;6.67;6.07;;;25.50;99.90;;;;;;5029041;28;20450;-75
2022/08/16 08:22:19;;;;;;;10.70;7.40;;;25.30;99.90;;;;;;5029629;28;20549;-74
2022/08/16 08:24:45;;;;;;;10.10;6.70;;;25.20;99.90;;;;;;5030040;28;20991;-74
2022/08/16 08:27:12;;;;;;;7.37;6.57;;;25.30;99.90;;;;;;5029598;28;20485;-74
2022/08/16 08:29:39;;;;;;;8.20;6.00;;;25.50;99.90;;;;;;5029329;28;20457;-74
2022/08/16 08:32:07;;;;;;;7.33;6.60;;;25.50;99.90;;;;;;5029265;28;20525;-74
2022/08/16 08:34:35;;;;;;;9.90;7.00;;;25.50;99.90;;;;;;5029547;28;20818;-74
2022/08/16 08:37:02;;;;;;;10.47;7.40;;;25.20;99.90;;;;;;5029228;28;20481;-74
2022/08/16 08:39:29;;;;;;;7.90;6.90;;;25.30;99.90;;;;;;5029910;28;20450;-74
2022/08/16 08:41:56;;;;;;;8.50;6.40;;;25.30;99.90;;;;;;5028950;28;20998;-75
2022/08/16 08:44:22;;;;;;;7.23;6.53;;;25.50;99.90;;;;;;5029469;28;20501;-75
2022/08/16 08:46:50;;;;;;;6.80;6.10;;;25.50;99.90;;;;;;5029264;28;20528;-75
2022/08/16 08:49:17;;;;;;;9.00;7.07;;;25.30;99.90;;;;;;5029879;28;20808;-75
2022/08/16 08:51:45;;;;;;;7.20;6.50;;;25.60;99.90;;;;;;5028300;28;20540;-74
2022/08/16 08:54:13;;;;;;;7.20;6.40;;;26.00;99.90;;;;;;5028097;28;20456;-75
2022/08/16 08:56:40;;;;;;;9.33;6.87;;;26.00;99.90;;;;;;5029497;28;20513;-75
2022/08/16 08:59:08;;;;;;;6.68;6.07;;;26.00;99.90;;;;;;5029454;28;20457;-74
2022/08/16 09:01:37;;;;;;;8.20;6.78;;;26.00;99.90;;;;;;5028444;28;20748;-74
2022/08/16 09:04:05;;;;;;;9.93;6.53;;;26.00;99.90;;;;;;5028714;28;20204;-74
2022/08/16 09:06:32;;;;;;;7.03;5.83;;;25.90;99.90;;;;;;5028550;28;20474;-75
2022/08/16 09:09:01;;;;;;;7.10;5.83;;;26.10;99.90;;;;;;5026154;28;20467;-74
2022/08/16 09:11:28;;;;;;;5.97;5.20;;;26.30;99.90;;;;;;5028312;28;20473;-74
2022/08/16 09:13:55;;;;;;;8.43;6.20;;;26.50;99.90;;;;;;5027110;28;20517;-73
2022/08/16 09:16:21;;;;;;;6.43;5.83;;;26.70;99.90;;;;;;5027091;28;20508;-75
2022/08/16 09:18:48;;;;;;;7.60;6.10;;;26.90;99.90;;;;;;5028599;28;20507;-74
2022/08/16 09:21:15;;;;;;;6.77;6.17;;;26.80;99.90;;;;;;5027508;28;20470;-73
2022/08/16 09:23:42;;;;;;;8.52;5.50;;;26.90;99.90;;;;;;5022057;28;20535;-73
2022/08/16 09:26:14;;;;;;;7.00;6.00;;;27.10;99.90;;;;;;5025923;28;20208;-74
2022/08/16 09:28:42;;;;;;;6.27;5.77;;;27.00;99.90;;;;;;5027235;28;20461;-74
2022/08/16 09:31:09;;;;;;;8.50;5.97;;;27.00;99.90;;;;;;5026847;28;21753;-74
2022/08/16 09:33:36;;;;;;;5.70;5.20;;;27.00;99.90;;;;;;5026753;28;20465;-74
2022/08/16 09:36:03;;;;;;;6.80;6.00;;;27.00;99.90;;;;;;5027472;28;20515;-74
2022/08/16 09:38:30;;;;;;;9.43;5.87;;;27.00;99.90;;;;;;5027505;28;20492;-75
2022/08/16 09:40:57;;;;;;;7.10;5.60;;;26.80;99.90;;;;;;5025924;28;20458;-74
2022/08/16 09:43:25;;;;;;;5.70;5.13;;;27.00;99.90;;;;;;5027999;28;20449;-74
2022/08/16 09:45:52;;;;;;;6.83;5.40;;;26.90;99.90;;;;;;5027089;28;20523;-74
2022/08/16 09:48:19;;;;;;;9.30;5.90;;;26.80;99.90;;;;;;5027169;28;20544;-74
2022/08/16 09:50:46;;;;;;;7.13;6.25;;;26.70;99.90;;;;;;5027391;28;20473;-74
2022/08/16 09:53:19;;;;;;;6.67;5.87;;;26.80;99.90;;;;;;5027282;28;20199;-74
2022/08/16 09:55:51;;;;;;;7.20;6.10;;;26.90;99.90;;;;;;5027055;28;20474;-74
2022/08/16 09:58:18;;;;;;;6.70;5.33;;;27.30;99.90;;;;;;5026829;28;20450;-74
2022/08/16 10:00:47;;;;;;;5.33;4.83;;;27.40;99.90;;;;;;5025767;28;21133;-74
2022/08/16 10:03:14;;;;;;;6.67;6.07;;;27.50;99.90;;;;;;5027034;28;21001;-75
2022/08/16 10:05:41;;;;;;;7.03;5.15;;;27.40;99.90;;;;;;5025897;28;20865;-75
2022/08/16 10:08:08;;;;;;;5.73;5.10;;;27.50;99.90;;;;;;5025525;28;20276;-75
2022/08/16 10:10:35;;;;;;;6.00;5.30;;;27.40;99.90;;;;;;5027185;28;20512;-75
2022/08/16 10:13:13;;;;;;;5.70;4.80;;;27.50;99.90;;;;;;5027575;28;20473;-75
2022/08/16 10:15:42;;;;;;;5.60;5.10;;;27.60;99.90;;;;;;5027291;28;20467;-74
2022/08/16 10:18:11;;;;;;;6.43;5.83;;;27.70;99.90;;;;;;5027682;28;20450;-75
2022/08/16 10:20:41;;;;;;;5.60;5.10;;;27.90;99.90;;;;;;5028531;28;20500;-73
2022/08/16 10:23:10;;;;;;;7.90;4.90;;;27.80;99.90;;;;;;5031556;28;20993;-75
2022/08/16 10:25:40;;;;;;;6.73;4.97;;;27.60;99.90;;;;;;5030605;28;20449;-74
2022/08/16 10:28:07;;;;;;;5.73;5.33;;;27.60;99.90;;;;;;5031438;28;20490;-74
2022/08/16 10:30:34;;;;;;;5.93;5.43;;;27.80;99.90;;;;;;5030746;28;20465;-75
2022/08/16 10:33:01;;;;;;;6.23;5.20;;;27.80;99.90;;;;;;5031138;28;20624;-74
2022/08/16 10:35:29;;;;;;;7.53;5.47;;;27.70;99.90;;;;;;5030916;28;20462;-74
2022/08/16 10:37:56;;;;;;;13.13;4.80;;;27.80;99.90;;;;;;5031243;28;20745;-74
2022/08/16 10:40:23;;;;;;;5.27;4.40;;;28.10;99.90;;;;;;5030701;28;20887;-75
2022/08/16 10:42:50;;;;;;;5.93;5.00;;;28.40;99.90;;;;;;5030437;28;20474;-75
2022/08/16 10:45:17;;;;;;;12.00;5.90;;;28.50;99.90;;;;;;5030261;28;20452;-75
2022/08/16 10:47:43;;;;;;;5.07;4.60;;;28.30;99.90;;;;;;5030197;28;20481;-75
2022/08/16 10:50:11;;;;;;;5.00;4.60;;;28.40;99.90;;;;;;5030704;28;20454;-75
2022/08/16 10:52:39;;;;;;;6.23;5.23;;;28.20;99.90;;;;;;5030085;28;20903;-75
2022/08/16 10:55:09;;;;;;;6.00;4.60;;;28.30;99.90;;;;;;5030834;28;20543;-75
2022/08/16 10:57:35;;;;;;;6.13;4.60;;;28.30;99.90;;;;;;5030266;28;20528;-75
2022/08/16 11:00:06;;;;;;;5.77;4.60;;;28.30;99.90;;;;;;5029794;28;20508;-75
2022/08/16 11:02:33;;;;;;;6.20;4.50;;;28.10;99.90;;;;;;5030179;28;20469;-75
2022/08/16 11:04:59;;;;;;;4.60;4.20;;;28.10;99.90;;;;;;5030983;28;20446;-74
2022/08/16 11:07:26;;;;;;;5.40;4.53;;;28.40;99.90;;;;;;5030106;28;20486;-74
2022/08/16 11:09:54;;;;;;;10.03;4.53;;;28.50;99.90;;;;;;5030463;28;20442;-74
2022/08/16 11:12:20;;;;;;;7.77;4.27;;;28.60;99.90;;;;;;5029654;28;20556;-75
2022/08/16 11:14:47;;;;;;;6.10;4.22;;;28.90;99.90;;;;;;5030459;28;21851;-74
2022/08/16 11:17:14;;;;;;;7.45;4.35;;;28.90;99.90;;;;;;5029810;28;20609;-74
2022/08/16 11:19:41;;;;;;;4.80;4.40;;;28.80;99.90;;;;;;5030200;28;20741;-74
2022/08/16 11:22:07;;;;;;;4.50;3.90;;;28.90;99.90;;;;;;5029604;28;20555;-74
2022/08/16 11:24:38;;;;;;;14.07;4.43;;;29.00;99.90;;;;;;5029851;28;20468;-74
2022/08/16 11:27:07;;;;;;;4.97;4.30;;;29.10;99.90;;;;;;5029993;28;21214;-74
2022/08/16 11:29:34;;;;;;;4.23;3.83;;;28.90;99.90;;;;;;5029969;28;20453;-75
2022/08/16 11:32:03;;;;;;;7.13;4.10;;;28.90;99.90;;;;;;5028331;28;20462;-76
2022/08/16 11:34:30;;;;;;;4.03;3.40;;;28.80;99.90;;;;;;5029454;28;20456;-76
2022/08/16 11:36:57;;;;;;;4.00;3.70;;;28.70;99.90;;;;;;5029261;28;20868;-76
2022/08/16 11:39:23;;;;;;;3.90;3.60;;;28.70;99.90;;;;;;5029503;28;20445;-74
2022/08/16 11:41:50;;;;;;;3.90;3.60;;;28.60;99.90;;;;;;5028635;28;20462;-72
2022/08/16 11:44:18;;;;;;;4.22;3.83;;;28.60;99.90;;;;;;5030490;28;20458;-71
2022/08/16 11:46:45;;;;;;;6.28;4.15;;;28.70;99.90;;;;;;5029631;28;20202;-74
2022/08/16 11:49:11;;;;;;;3.90;3.50;;;29.10;99.90;;;;;;5030100;28;20195;-72
2022/08/16 11:51:38;;;;;;;3.57;3.27;;;29.10;99.90;;;;;;5028940;28;20485;-77
2022/08/16 11:54:05;;;;;;;4.20;3.40;;;29.10;99.90;;;;;;5029994;28;20461;-76
2022/08/16 11:56:31;;;;;;;3.87;3.57;;;29.10;99.90;;;;;;5029720;28;20954;-75
2022/08/16 11:58:58;;;;;;;4.50;4.10;;;29.20;99.90;;;;;;5029839;28;20450;-76
2022/08/16 12:01:26;;;;;;;3.60;3.40;;;29.30;99.90;;;;;;5028913;28;20489;-77
2022/08/16 12:03:53;;;;;;;6.57;4.37;;;29.50;99.90;;;;;;5029780;28;20457;-76
2022/08/16 12:06:20;;;;;;;3.90;3.57;;;29.40;99.90;;;;;;5030171;28;20535;-77
2022/08/16 12:08:48;;;;;;;3.80;3.60;;;29.60;99.90;;;;;;5028870;28;20489;-77
2022/08/16 12:11:16;;;;;;;3.90;3.50;;;29.70;99.90;;;;;;5029013;28;20532;-77
2022/08/16 12:13:44;;;;;;;4.70;3.60;;;29.70;99.90;;;;;;5029027;28;20466;-73
2022/08/16 12:16:11;;;;;;;4.77;3.70;;;29.60;99.90;;;;;;5028762;28;20446;-72
2022/08/16 12:18:40;;;;;;;6.68;3.03;;;29.60;99.90;;;;;;5028297;28;20515;-75
2022/08/16 12:21:07;;;;;;;4.43;3.40;;;29.70;99.90;;;;;;5029053;28;20718;-76
2022/08/16 12:23:34;;;;;;;3.80;3.40;;;29.90;99.90;;;;;;5028537;28;20452;-78
2022/08/16 12:26:01;;;;;;;3.80;3.40;;;29.90;99.90;;;;;;5029320;28;20528;-77
2022/08/16 12:28:28;;;;;;;7.25;3.70;;;29.60;99.90;;;;;;5028775;28;20562;-78
2022/08/16 12:30:55;;;;;;;4.13;3.03;;;29.30;99.90;;;;;;5028038;28;20449;-78
2022/08/16 12:33:21;;;;;;;4.47;3.50;;;29.10;99.90;;;;;;5029479;28;20234;-78
2022/08/16 12:35:49;;;;;;;4.07;3.30;;;29.10;99.90;;;;;;5029218;28;20458;-79
2022/08/16 12:38:17;;;;;;;4.90;3.87;;;29.20;99.90;;;;;;5028471;28;20449;-77
2022/08/16 12:40:49;;;;;;;4.00;3.60;;;29.30;99.90;;;;;;5028342;28;20465;-76
2022/08/16 12:43:20;;;;;;;3.83;3.40;;;29.40;99.90;;;;;;5028771;28;20343;-77